Time;durP1;ratioP1;P1;durP2;ratioP2;P2;SDS_P1;SDS_P2;PMS_P1;PMS_P2;Temp;Humidity;BMP_temperature;BMP_pressure;BME280_temperature;BME280_humidity;BME280_pressure;Samples;Min_cycle;Max_cycle;Signal;HPM_P1;HPM_P2
2022/04/10 00:01:51;;;;;;;11.00;2.88;;;;;;;3.47;85.48;101763.16;5055143;28;20033;-69
2022/04/10 00:04:16;;;;;;;12.18;2.30;;;;;;;3.53;85.29;101767.81;5056425;28;20025;-71
2022/04/10 00:06:41;;;;;;;13.00;2.55;;;;;;;3.58;85.54;101768.28;5056318;28;20457;-69
2022/04/10 00:09:07;;;;;;;11.68;2.00;;;;;;;3.58;84.96;101775.94;5038329;28;20052;-69
2022/04/10 00:11:32;;;;;;;13.93;2.42;;;;;;;3.67;85.00;101771.06;5056124;28;20025;-70
2022/04/10 00:13:58;;;;;;;12.43;2.13;;;;;;;3.74;84.39;101777.31;5056375;28;20024;-68
2022/04/10 00:16:23;;;;;;;10.73;2.15;;;;;;;3.80;84.12;101774.31;5054773;28;20017;-69
2022/04/10 00:18:49;;;;;;;17.85;2.50;;;;;;;3.88;82.56;101768.59;5054950;28;20415;-69
2022/04/10 00:21:14;;;;;;;6.90;1.88;;;;;;;3.74;83.64;101765.38;5055933;28;20116;-69
2022/04/10 00:23:40;;;;;;;11.90;2.30;;;;;;;3.67;84.37;101759.09;5056036;28;20024;-69
2022/04/10 00:26:05;;;;;;;9.45;2.10;;;;;;;3.37;84.47;101765.63;5054870;28;20108;-68
2022/04/10 00:28:31;;;;;;;11.93;2.20;;;;;;;3.36;85.63;101763.97;5056173;28;20064;-68
2022/04/10 00:30:56;;;;;;;10.82;2.70;;;;;;;3.40;85.03;101762.03;5055885;28;20025;-68
2022/04/10 00:33:22;;;;;;;18.25;2.90;;;;;;;3.44;84.64;101765.16;5054711;28;20473;-68
2022/04/10 00:35:47;;;;;;;11.00;2.70;;;;;;;3.26;84.12;101764.81;5054902;28;20025;-68
2022/04/10 00:38:13;;;;;;;11.95;2.65;;;;;;;3.26;84.68;101755.38;5055744;28;20056;-69
2022/04/10 00:40:38;;;;;;;10.77;2.30;;;;;;;3.31;85.14;101749.91;5055828;28;20350;-70
2022/04/10 00:43:03;;;;;;;11.80;2.92;;;;;;;3.05;85.43;101750.16;5055837;28;20027;-68
2022/04/10 00:45:29;;;;;;;12.38;2.38;;;;;;;3.00;86.08;101751.41;5054523;28;20059;-69
2022/04/10 00:47:54;;;;;;;11.30;2.47;;;;;;;3.10;86.27;101749.78;5054592;28;20052;-69
2022/04/10 00:50:20;;;;;;;6.05;2.20;;;;;;;3.01;85.70;101743.63;5055608;28;20150;-68
2022/04/10 00:52:48;;;;;;;9.45;2.45;;;;;;;3.00;86.17;101739.47;5055627;28;20025;-69
2022/04/10 00:55:13;;;;;;;12.43;2.80;;;;;;;3.02;86.25;101741.88;5055372;28;20067;-69
2022/04/10 00:57:39;;;;;;;12.10;2.97;;;;;;;2.99;86.29;101737.00;5055571;28;20029;-69
2022/04/10 01:00:11;;;;;;;11.85;2.30;;;;;;;2.99;86.13;101735.25;5055464;28;20361;-69
2022/04/10 01:02:39;;;;;;;6.10;2.22;;;;;;;3.00;85.93;101731.00;5055425;28;20495;-68
2022/04/10 01:05:06;;;;;;;11.45;2.72;;;;;;;2.99;86.46;101729.34;5054986;28;20472;-70
2022/04/10 01:07:31;;;;;;;7.53;2.20;;;;;;;3.07;86.58;101737.25;5055102;28;20024;-68
2022/04/10 01:09:57;;;;;;;8.48;2.33;;;;;;;3.11;85.81;101741.22;5054073;28;20342;-70
2022/04/10 01:12:23;;;;;;;7.40;2.00;;;;;;;3.10;85.68;101747.25;5055482;28;20479;-69
2022/04/10 01:14:50;;;;;;;7.45;1.55;;;;;;;3.14;85.33;101746.91;5053888;28;20021;-71
2022/04/10 01:17:16;;;;;;;10.02;2.08;;;;;;;3.13;84.24;101737.59;5054996;28;20029;-69
2022/04/10 01:19:42;;;;;;;14.98;2.00;;;;;;;3.17;83.88;101738.19;5053755;28;20032;-69
2022/04/10 01:22:09;;;;;;;10.93;1.80;;;;;;;3.28;83.46;101745.88;5054993;28;20102;-68
2022/04/10 01:24:39;;;;;;;10.85;2.15;;;;;;;3.28;83.53;101752.69;5054943;28;20029;-69
2022/04/10 01:27:04;;;;;;;9.95;2.80;;;;;;;3.34;82.99;101754.81;5054396;28;20021;-69
2022/04/10 01:29:30;;;;;;;15.60;2.35;;;;;;;3.30;83.35;101761.06;5054717;28;20503;-69
2022/04/10 01:31:56;;;;;;;8.68;2.20;;;;;;;3.29;83.31;101756.91;5053456;28;20078;-69
2022/04/10 01:34:22;;;;;;;11.55;2.60;;;;;;;3.30;84.06;101759.31;5055150;28;20425;-68
2022/04/10 01:36:48;;;;;;;12.23;2.30;;;;;;;3.17;83.64;101762.00;5053608;28;20056;-68
2022/04/10 01:39:16;;;;;;;10.70;2.20;;;;;;;3.17;84.03;101768.84;5036686;28;20384;-69
2022/04/10 01:41:43;;;;;;;11.57;2.13;;;;;;;3.19;84.04;101772.09;5053511;28;20063;-68
2022/04/10 01:44:09;;;;;;;9.93;2.13;;;;;;;3.22;83.90;101773.59;5054630;28;20033;-70
2022/04/10 01:46:36;;;;;;;7.10;2.50;;;;;;;3.23;83.78;101772.69;5054003;28;20025;-69
2022/04/10 01:49:05;;;;;;;8.43;2.35;;;;;;;3.17;83.99;101766.31;5054444;28;20506;-70
2022/04/10 01:51:30;;;;;;;10.70;2.30;;;;;;;3.25;83.99;101770.81;5054517;28;20055;-68
2022/04/10 01:53:56;;;;;;;7.43;2.30;;;;;;;3.36;82.81;101776.75;5054349;28;20029;-69
2022/04/10 01:56:22;;;;;;;13.35;2.67;;;;;;;3.22;83.31;101781.28;5036523;28;20067;-70
2022/04/10 01:58:48;;;;;;;10.57;2.50;;;;;;;3.09;83.77;101768.59;5054194;28;20025;-68
2022/04/10 02:01:16;;;;;;;11.70;2.50;;;;;;;3.14;84.38;101779.31;5054311;28;20083;-69
2022/04/10 02:03:43;;;;;;;15.48;2.47;;;;;;;3.27;83.38;101785.09;5052663;28;20488;-69
2022/04/10 02:06:10;;;;;;;9.18;2.35;;;;;;;3.32;82.88;101782.22;5053016;28;20468;-68
2022/04/10 02:08:35;;;;;;;11.93;2.67;;;;;;;3.27;82.94;101787.66;5054045;28;20053;-69
2022/04/10 02:11:11;;;;;;;18.23;3.50;;;;;;;3.16;83.46;101788.47;5054019;28;20071;-69
2022/04/10 02:13:37;;;;;;;14.90;2.90;;;;;;;3.12;83.09;101786.25;5054574;28;20352;-68
2022/04/10 02:16:02;;;;;;;12.43;3.30;;;;;;;2.99;83.64;101794.00;5053869;28;20025;-68
2022/04/10 02:18:27;;;;;;;15.25;3.08;;;;;;;2.97;84.45;101800.97;5054109;28;20031;-69
2022/04/10 02:20:53;;;;;;;12.73;2.25;;;;;;;3.04;84.00;101797.03;5052745;28;20025;-68
2022/04/10 02:23:18;;;;;;;11.15;2.58;;;;;;;3.02;83.17;101791.25;5054055;28;20035;-69
2022/04/10 02:25:43;;;;;;;9.65;2.85;;;;;;;2.96;84.14;101796.78;5052386;28;20037;-68
2022/04/10 02:28:08;;;;;;;9.93;2.17;;;;;;;2.89;85.06;101803.25;5052344;28;20025;-69
2022/04/10 02:30:34;;;;;;;6.85;2.15;;;;;;;2.87;84.71;101805.09;5053913;28;20035;-69
2022/04/10 02:32:59;;;;;;;12.02;3.20;;;;;;;2.63;84.81;101805.97;5052522;28;20330;-69
2022/04/10 02:35:24;;;;;;;10.30;2.92;;;;;;;2.53;86.06;101794.75;5054085;28;20056;-69
2022/04/10 02:37:49;;;;;;;11.45;2.25;;;;;;;2.61;85.50;101797.59;5051727;28;20115;-68
2022/04/10 02:40:15;;;;;;;9.60;2.03;;;;;;;2.51;85.74;101796.63;5053228;28;20082;-69
2022/04/10 02:42:41;;;;;;;7.72;2.20;;;;;;;2.49;86.60;101799.28;5052258;28;20546;-68
2022/04/10 02:45:07;;;;;;;12.10;2.72;;;;;;;2.31;86.95;101766.63;5053497;28;20021;-69
2022/04/10 02:47:33;;;;;;;7.85;2.53;;;;;;;2.46;86.09;101804.59;5035537;28;20053;-68
2022/04/10 02:49:58;;;;;;;11.13;2.40;;;;;;;2.42;86.48;101799.84;5052271;28;20397;-69
2022/04/10 02:52:24;;;;;;;10.48;3.00;;;;;;;2.25;86.53;101780.63;5053486;28;20107;-69
2022/04/10 02:54:49;;;;;;;11.35;2.97;;;;;;;2.38;86.64;101804.31;5035448;28;20021;-69
2022/04/10 02:57:15;;;;;;;12.07;2.65;;;;;;;2.40;86.85;101810.13;5053175;28;20029;-70
2022/04/10 02:59:40;;;;;;;8.27;2.70;;;;;;;2.44;86.65;101810.72;5053597;28;20456;-68
2022/04/10 03:02:06;;;;;;;8.43;2.28;;;;;;;2.39;86.48;101812.81;5053282;28;20028;-69
2022/04/10 03:04:31;;;;;;;11.15;2.70;;;;;;;2.22;86.93;101806.34;5019067;28;20116;-69
2022/04/10 03:06:57;;;;;;;11.48;3.15;;;;;;;2.41;87.11;101826.25;5053499;28;20025;-69
2022/04/10 03:09:22;;;;;;;12.38;2.30;;;;;;;2.47;85.83;101813.06;5053206;28;20090;-69
2022/04/10 03:11:47;;;;;;;10.90;2.95;;;;;;;2.59;85.60;101819.88;5053255;28;20041;-69
2022/04/10 03:14:13;;;;;;;16.42;2.90;;;;;;;2.52;85.39;101821.22;5052026;28;20021;-68
2022/04/10 03:16:38;;;;;;;13.07;2.70;;;;;;;2.39;85.52;101828.13;5053261;28;20036;-69
2022/04/10 03:19:03;;;;;;;13.80;3.10;;;;;;;2.25;86.24;101823.97;5052108;28;20053;-68
2022/04/10 03:21:29;;;;;;;10.00;2.40;;;;;;;2.35;86.75;101817.28;5035452;28;20079;-70
2022/04/10 03:23:54;;;;;;;10.23;2.53;;;;;;;2.23;86.64;101821.53;5035303;28;20357;-70
2022/04/10 03:26:20;;;;;;;9.75;2.67;;;;;;;2.21;86.56;101818.25;5053128;28;20025;-68
2022/04/10 03:28:45;;;;;;;13.63;2.63;;;;;;;2.36;86.68;101825.75;5053104;28;20021;-70
2022/04/10 03:31:10;;;;;;;8.60;2.63;;;;;;;2.16;86.41;101812.69;5052031;28;20070;-68
2022/04/10 03:33:36;;;;;;;7.40;3.03;;;;;;;2.06;86.99;101801.47;5053127;28;20025;-69
2022/04/10 03:36:02;;;;;;;11.20;2.85;;;;;;;2.12;87.24;101826.56;5051984;28;20040;-69
2022/04/10 03:38:27;;;;;;;9.15;2.92;;;;;;;2.22;86.50;101825.00;5053301;28;20522;-70
2022/04/10 03:40:52;;;;;;;11.93;2.70;;;;;;;2.29;86.67;101822.84;5051803;28;20033;-69
2022/04/10 03:43:19;;;;;;;14.27;3.20;;;;;;;2.34;86.63;101823.34;5052902;28;20361;-70
2022/04/10 03:45:44;;;;;;;12.20;3.00;;;;;;;2.29;86.82;101822.03;5052821;28;20083;-69
2022/04/10 03:48:09;;;;;;;12.25;3.45;;;;;;;2.24;86.93;101833.38;5052918;28;20017;-70
2022/04/10 03:50:35;;;;;;;18.48;3.10;;;;;;;2.19;87.35;101821.88;5055383;28;20032;-68
2022/04/10 03:53:02;;;;;;;8.77;3.10;;;;;;;2.20;87.41;101824.28;5056764;28;20559;-69
2022/04/10 03:55:27;;;;;;;11.27;2.75;;;;;;;2.19;86.90;101824.41;5056627;28;20033;-70
2022/04/10 03:57:53;;;;;;;6.38;2.53;;;;;;;2.06;87.04;101828.72;5056438;28;20388;-69
2022/04/10 04:00:19;;;;;;;10.57;2.90;;;;;;;2.00;88.17;101842.69;5056616;28;20097;-69
2022/04/10 04:02:45;;;;;;;13.63;3.10;;;;;;;1.98;87.64;101832.59;5056518;28;20033;-69
2022/04/10 04:05:11;;;;;;;9.05;2.85;;;;;;;1.98;87.90;101841.97;5056394;28;20070;-70
2022/04/10 04:07:37;;;;;;;15.10;3.40;;;;;;;2.09;88.16;101836.97;5038278;28;20053;-68
2022/04/10 04:10:03;;;;;;;9.45;2.85;;;;;;;2.29;87.54;101838.13;5056935;28;20021;-69
2022/04/10 04:12:29;;;;;;;15.10;3.78;;;;;;;2.32;85.93;101840.47;5056267;28;20037;-70
2022/04/10 04:14:54;;;;;;;9.43;2.85;;;;;;;2.22;86.20;101842.84;5056356;28;20021;-69
2022/04/10 04:17:19;;;;;;;7.28;2.65;;;;;;;2.13;86.29;101843.50;5056152;28;20032;-67
2022/04/10 04:19:49;;;;;;;10.05;2.80;;;;;;;1.99;87.25;101853.84;5055073;28;20423;-69
2022/04/10 04:22:15;;;;;;;12.82;3.00;;;;;;;1.93;87.68;101851.69;5055057;28;20032;-68
2022/04/10 04:24:40;;;;;;;9.50;2.70;;;;;;;1.90;87.79;101855.28;5056472;28;20038;-69
2022/04/10 04:27:05;;;;;;;6.93;2.58;;;;;;;1.91;87.49;101862.00;5054637;28;20041;-69
2022/04/10 04:29:30;;;;;;;10.70;2.80;;;;;;;1.91;88.26;101861.19;5055755;28;20028;-68
2022/04/10 04:31:55;;;;;;;13.25;2.75;;;;;;;2.07;87.89;101856.66;5056002;28;20024;-70
2022/04/10 04:34:21;;;;;;;8.48;2.50;;;;;;;2.25;86.76;101857.94;5037998;28;20033;-69
2022/04/10 04:36:46;;;;;;;7.20;2.55;;;;;;;2.44;86.28;101852.38;5054453;28;20465;-69
2022/04/10 04:39:12;;;;;;;11.85;2.92;;;;;;;2.51;85.40;101851.97;5054449;28;20086;-69
2022/04/10 04:41:37;;;;;;;12.82;2.67;;;;;;;2.56;84.84;101850.72;5055984;28;20075;-69
2022/04/10 04:44:03;;;;;;;9.65;2.90;;;;;;;2.48;85.75;101845.34;5055904;28;20029;-69
2022/04/10 04:46:28;;;;;;;10.35;2.90;;;;;;;2.40;85.50;101848.41;5037721;28;20031;-69
2022/04/10 04:48:53;;;;;;;12.15;3.00;;;;;;;2.39;85.55;101848.53;5054530;28;20116;-70
2022/04/10 04:51:19;;;;;;;8.88;2.72;;;;;;;2.44;86.05;101856.66;5055747;28;20537;-69
2022/04/10 04:53:44;;;;;;;11.20;2.75;;;;;;;2.47;85.84;101857.28;5055400;28;20064;-69
2022/04/10 04:56:09;;;;;;;6.85;2.78;;;;;;;2.36;85.70;101859.75;5055382;28;20028;-69
2022/04/10 04:58:34;;;;;;;8.90;2.97;;;;;;;2.41;86.15;101870.44;5055166;28;20025;-70
2022/04/10 05:01:00;;;;;;;11.27;3.15;;;;;;;2.18;86.05;101825.31;5054334;28;20024;-69
2022/04/10 05:03:25;;;;;;;10.43;2.92;;;;;;;2.39;85.96;101866.41;5055585;28;20507;-70
2022/04/10 05:05:50;;;;;;;12.75;3.03;;;;;;;2.39;86.17;101882.50;5053861;28;20117;-69
2022/04/10 05:08:16;;;;;;;13.25;3.22;;;;;;;2.44;85.92;101877.06;5054184;28;20049;-69
2022/04/10 05:10:41;;;;;;;7.43;3.17;;;;;;;2.41;85.66;101867.06;5037494;28;20050;-70
2022/04/10 05:13:08;;;;;;;8.98;3.05;;;;;;;2.44;86.00;101869.41;5055133;28;20033;-70
2022/04/10 05:15:34;;;;;;;7.32;2.70;;;;;;;2.30;85.63;101865.25;5055145;28;20025;-69
2022/04/10 05:17:59;;;;;;;10.50;2.78;;;;;;;2.45;86.01;101868.50;5055399;28;20412;-70
2022/04/10 05:20:24;;;;;;;7.53;3.00;;;;;;;2.51;85.72;101875.72;5055284;28;20147;-68
2022/04/10 05:22:50;;;;;;;6.80;3.25;;;;;;;2.70;85.20;101883.75;5053527;28;20044;-70
2022/04/10 05:25:15;;;;;;;13.60;2.60;;;;;;;2.74;84.54;101888.63;5054982;28;20021;-69
2022/04/10 05:27:40;;;;;;;8.80;2.78;;;;;;;2.85;85.00;101886.09;5055026;28;20029;-71
2022/04/10 05:30:06;;;;;;;9.45;2.38;;;;;;;2.99;84.17;101890.22;5053501;28;20139;-70
2022/04/10 05:32:31;;;;;;;7.25;2.60;;;;;;;3.20;84.41;101890.44;5054941;28;20487;-71
2022/04/10 05:34:57;;;;;;;6.60;1.88;;;;;;;3.17;83.27;101858.25;5053529;28;20119;-70
2022/04/10 05:37:22;;;;;;;9.75;2.33;;;;;;;3.59;82.63;101900.25;5053560;28;20025;-69
2022/04/10 05:39:47;;;;;;;5.57;2.15;;;;;;;3.58;83.87;101906.31;5053425;28;20021;-69
2022/04/10 05:42:12;;;;;;;11.40;2.30;;;;;;;3.60;83.64;101924.09;5054696;28;20057;-68
2022/04/10 05:44:38;;;;;;;13.02;2.45;;;;;;;3.55;84.56;101957.66;5054220;28;20372;-69
2022/04/10 05:47:03;;;;;;;6.25;1.80;;;;;;;3.46;83.77;101977.97;5054582;28;20075;-69
2022/04/10 05:49:28;;;;;;;5.80;1.50;;;;;;;3.31;85.19;101962.81;5054483;28;20100;-70
2022/04/10 05:51:54;;;;;;;5.25;1.65;;;;;;;3.37;85.77;101969.22;5020122;28;20060;-69
2022/04/10 05:54:19;;;;;;;12.00;2.03;;;;;;;3.42;86.68;101972.25;5054601;28;20501;-69
2022/04/10 05:56:44;;;;;;;4.32;1.80;;;;;;;3.25;87.99;101970.09;5036597;28;20078;-70
2022/04/10 05:59:09;;;;;;;4.40;1.92;;;;;;;3.38;89.36;101970.84;5053159;28;20029;-70
2022/04/10 06:01:35;;;;;;;5.45;1.55;;;;;;;3.37;89.31;101987.94;5054101;28;20456;-70
2022/04/10 06:04:00;;;;;;;4.65;1.70;;;;;;;3.35;90.24;101992.31;5054139;28;20036;-70
2022/04/10 06:06:25;;;;;;;3.42;1.42;;;;;;;3.29;90.55;101979.19;5053115;28;20029;-71
2022/04/10 06:08:51;;;;;;;8.93;1.80;;;;;;;3.38;90.69;101988.75;5055699;28;20135;-70
2022/04/10 06:11:16;;;;;;;5.25;1.30;;;;;;;3.34;90.74;101977.13;5056596;28;20051;-69
2022/04/10 06:13:41;;;;;;;6.78;1.58;;;;;;;3.50;90.78;101980.19;5056663;28;20104;-70
2022/04/10 06:16:07;;;;;;;6.40;1.60;;;;;;;3.54;90.83;101961.16;5054940;28;20112;-71
2022/04/10 06:18:32;;;;;;;4.70;1.35;;;;;;;3.73;89.64;101980.25;5036484;28;20544;-69
2022/04/10 06:20:57;;;;;;;5.88;1.50;;;;;;;3.80;90.21;101989.13;5054093;28;20025;-70
2022/04/10 06:23:23;;;;;;;5.45;1.50;;;;;;;3.84;90.76;101983.63;5052825;28;20016;-70
2022/04/10 06:25:49;;;;;;;4.63;1.52;;;;;;;3.80;89.97;101986.56;5053813;28;20024;-70
2022/04/10 06:28:14;;;;;;;5.38;1.60;;;;;;;4.02;89.93;101991.69;5053694;28;20481;-69
2022/04/10 06:30:40;;;;;;;5.13;1.52;;;;;;;4.51;89.16;101984.59;5053797;28;20102;-70
2022/04/10 06:33:05;;;;;;;4.13;1.58;;;;;;;4.70;87.80;101978.91;5054174;28;20074;-71
2022/04/10 06:35:30;;;;;;;5.00;1.60;;;;;;;5.20;87.11;101985.16;5052358;28;20016;-70
2022/04/10 06:37:56;;;;;;;4.45;1.50;;;;;;;5.36;84.28;101989.06;5035435;28;20041;-70
2022/04/10 06:40:21;;;;;;;4.82;1.55;;;;;;;5.37;84.72;101996.63;5054645;28;20029;-70
2022/04/10 06:42:47;;;;;;;8.48;1.83;;;;;;;5.83;82.77;101995.47;5056806;28;20476;-69
2022/04/10 06:45:12;;;;;;;6.50;1.50;;;;;;;11.33;64.33;101993.03;5056450;28;20036;-69
2022/04/10 06:47:37;;;;;;;7.70;1.85;;;;;;;14.92;51.10;102001.81;5057467;28;20032;-70
2022/04/10 06:50:03;;;;;;;6.78;2.22;;;;;;;16.26;46.77;102004.38;5057359;28;20455;-70
2022/04/10 06:52:28;;;;;;;6.35;1.90;;;;;;;15.97;45.84;102006.25;5036172;28;20040;-69
2022/04/10 06:54:53;;;;;;;4.90;1.60;;;;;;;15.93;45.28;102005.00;5053228;28;20606;-70
2022/04/10 06:57:19;;;;;;;4.55;1.50;;;;;;;15.97;44.67;102006.25;5053333;28;20468;-70
2022/04/10 06:59:44;;;;;;;5.57;1.42;;;;;;;14.70;47.21;102009.59;5052124;28;20036;-70
2022/04/10 07:02:11;;;;;;;5.75;1.58;;;;;;;12.42;53.43;102010.63;5035817;28;20041;-69
2022/04/10 07:04:36;;;;;;;5.38;1.58;;;;;;;12.57;54.54;102013.31;5053563;28;20049;-70
2022/04/10 07:07:02;;;;;;;4.93;1.60;;;;;;;11.77;57.44;102014.22;5052289;28;20032;-70
2022/04/10 07:09:27;;;;;;;3.67;1.50;;;;;;;9.21;63.60;102010.03;5052204;28;20110;-70
2022/04/10 07:11:53;;;;;;;6.15;1.60;;;;;;;12.17;57.59;102013.34;5053843;28;20100;-70
2022/04/10 07:14:18;;;;;;;5.45;1.73;;;;;;;9.27;65.32;102027.47;5053406;28;20445;-69
2022/04/10 07:16:44;;;;;;;3.60;1.45;;;;;;;8.22;69.54;102021.94;5052516;28;20475;-70
2022/04/10 07:19:09;;;;;;;6.10;1.67;;;;;;;8.38;71.05;102027.28;5052537;28;20025;-70
2022/04/10 07:24:18;;;;;;;6.43;1.67;;;;;;;15.23;50.58;102020.53;5053983;28;20079;-70
2022/04/10 07:26:43;;;;;;;7.13;1.75;;;;;;;10.51;61.10;102035.09;5058591;28;20028;-71
2022/04/10 07:29:12;;;;;;;6.93;1.67;;;;;;;13.15;56.60;102024.16;5057861;28;20112;-70
2022/04/10 07:31:37;;;;;;;6.82;1.73;;;;;;;16.20;45.59;102026.81;5056400;28;20032;-71
2022/04/10 07:34:03;;;;;;;4.75;1.88;;;;;;;16.86;44.93;102015.78;5057872;28;20024;-70
2022/04/10 07:36:28;;;;;;;7.20;1.77;;;;;;;17.13;43.23;102025.28;5058125;28;20104;-69
2022/04/10 07:38:54;;;;;;;5.35;1.67;;;;;;;17.72;40.79;102031.50;5060486;28;20155;-73
2022/04/10 07:41:19;;;;;;;7.35;1.88;;;;;;;18.04;42.18;102031.66;5060712;28;20445;-74
2022/04/10 07:43:44;;;;;;;4.97;1.50;;;;;;;18.55;40.60;102017.72;5061151;28;20025;-76
2022/04/10 07:49:01;;;;;;;4.75;1.50;;;;;;;18.34;40.60;102044.22;5038247;28;20060;-72
2022/04/10 07:51:26;;;;;;;6.53;1.85;;;;;;;18.14;39.24;102039.03;5061449;28;20028;-71
2022/04/10 07:53:54;;;;;;;3.97;1.55;;;;;;;18.93;39.88;102038.69;5063235;28;20053;-73
2022/04/10 07:56:20;;;;;;;3.85;1.58;;;;;;;18.72;40.86;102054.69;5058491;28;20411;-70
2022/04/10 07:58:46;;;;;;;6.00;1.75;;;;;;;17.30;42.68;102046.59;5057527;28;20029;-70
2022/04/10 08:01:11;;;;;;;6.75;1.75;;;;;;;18.51;40.70;102050.56;5056138;28;20032;-71
2022/04/10 08:03:36;;;;;;;6.53;1.70;;;;;;;18.04;39.79;102047.34;5056693;28;20096;-70
2022/04/10 08:06:02;;;;;;;5.93;1.88;;;;;;;16.81;41.09;102052.94;5039457;28;20067;-71
2022/04/10 08:08:27;;;;;;;4.78;1.58;;;;;;;15.08;47.07;102064.06;5039872;28;20051;-71
2022/04/10 08:10:52;;;;;;;8.35;1.80;;;;;;;16.91;43.19;102063.00;5058266;28;20047;-70
2022/04/10 08:13:18;;;;;;;10.90;1.52;;;;;;;15.39;46.21;102066.31;5058397;28;20029;-69
2022/04/10 08:15:43;;;;;;;5.93;1.60;;;;;;;16.71;45.23;102062.91;5058518;28;20090;-69
2022/04/10 08:18:08;;;;;;;5.95;1.65;;;;;;;14.75;49.36;102069.69;5058442;28;20025;-70
2022/04/10 08:20:35;;;;;;;7.43;1.80;;;;;;;16.90;44.36;102066.63;5057179;28;20024;-70
2022/04/10 08:23:00;;;;;;;6.53;1.85;;;;;;;18.00;41.59;102067.03;5057799;28;20460;-70
2022/04/10 08:25:26;;;;;;;4.60;1.60;;;;;;;17.91;40.98;102070.91;5056866;28;20025;-71
2022/04/10 08:27:51;;;;;;;6.50;2.05;;;;;;;18.51;41.22;102074.13;5055682;28;20033;-69
2022/04/10 08:30:17;;;;;;;5.90;1.63;;;;;;;18.53;38.62;102071.28;5057482;28;20510;-70
2022/04/10 08:32:44;;;;;;;7.82;1.63;;;;;;;17.44;41.28;102068.28;5056814;28;20048;-69
2022/04/10 08:35:11;;;;;;;8.45;2.00;;;;;;;15.31;47.07;102072.47;5057043;28;20107;-71
2022/04/10 08:37:37;;;;;;;13.35;1.73;;;;;;;17.43;41.14;102069.28;5055398;28;20032;-69
2022/04/10 08:40:03;;;;;;;10.15;1.95;;;;;;;17.97;40.90;102070.06;5055222;28;20436;-69
2022/04/10 08:42:29;;;;;;;6.50;1.80;;;;;;;16.92;41.94;102069.84;5056664;28;20407;-69
2022/04/10 08:44:55;;;;;;;7.35;1.70;;;;;;;14.05;46.61;102073.56;5039329;28;20033;-69
2022/04/10 08:47:21;;;;;;;6.47;1.85;;;;;;;13.92;51.65;102081.16;5056649;28;20029;-69
2022/04/10 08:49:51;;;;;;;6.20;1.60;;;;;;;14.81;50.03;102087.16;5056806;28;20047;-70
2022/04/10 08:52:17;;;;;;;6.97;1.85;;;;;;;14.08;49.07;102083.63;5054991;28;20024;-69
2022/04/10 08:54:47;;;;;;;6.90;1.90;;;;;;;14.52;50.11;102082.81;5056569;28;20024;-69
2022/04/10 08:57:13;;;;;;;7.35;1.85;;;;;;;12.82;52.08;102081.44;5056981;28;20353;-69
2022/04/10 08:59:39;;;;;;;10.98;2.00;;;;;;;13.63;51.52;102090.50;5056270;28;20400;-69
2022/04/10 09:02:05;;;;;;;7.93;1.90;;;;;;;13.70;50.97;102075.84;5056675;28;20025;-70
2022/04/10 09:04:31;;;;;;;7.85;1.70;;;;;;;13.56;52.32;102081.03;5056875;28;20449;-69
2022/04/10 09:07:02;;;;;;;5.75;1.50;;;;;;;13.49;51.00;102091.28;5039023;28;20100;-69
2022/04/10 09:09:29;;;;;;;9.02;1.80;;;;;;;14.21;49.94;102089.00;5054671;28;20044;-70
2022/04/10 09:11:55;;;;;;;5.88;1.75;;;;;;;14.29;50.19;102090.69;5056350;28;20021;-71
2022/04/10 09:14:24;;;;;;;9.23;2.05;;;;;;;14.26;49.84;102095.47;5056941;28;20032;-70
2022/04/10 09:17:16;;;;;;;7.00;1.30;;;;;;;14.19;47.90;102096.19;5055923;28;20104;-70
2022/04/10 09:19:49;;;;;;;7.47;1.55;;;;;;;15.00;45.37;102096.19;5055949;28;20033;-69
2022/04/10 09:22:27;;;;;;;4.72;1.40;;;;;;;13.96;45.24;102090.25;5056249;28;20021;-70
2022/04/10 09:25:13;;;;;;;5.63;1.33;;;;;;;13.51;48.09;102090.13;5054807;28;20379;-69
2022/04/10 09:27:42;;;;;;;5.05;1.50;;;;;;;13.70;45.80;102085.44;5056145;28;20039;-69
2022/04/10 09:30:10;;;;;;;5.47;1.40;;;;;;;13.61;43.74;102092.50;5056237;28;20100;-70
2022/04/10 09:32:39;;;;;;;6.95;1.35;;;;;;;14.48;43.13;102091.97;5038260;28;20025;-69
2022/04/10 09:35:05;;;;;;;5.93;1.63;;;;;;;13.68;47.13;102100.41;5038405;28;20124;-70
2022/04/10 09:37:50;;;;;;;5.53;1.23;;;;;;;13.05;47.19;102090.06;5054006;28;20494;-71
2022/04/10 09:40:26;;;;;;;7.35;1.65;;;;;;;13.79;43.97;102094.78;5054665;28;20051;-69
2022/04/10 09:43:06;;;;;;;6.22;1.48;;;;;;;14.10;43.95;102096.44;5055483;28;20035;-69
2022/04/10 09:45:34;;;;;;;4.50;1.35;;;;;;;14.32;41.48;102099.94;5056701;28;20518;-70
2022/04/10 09:48:31;;;;;;;5.88;1.60;;;;;;;14.76;44.12;102102.56;5055368;28;20020;-69
2022/04/10 09:50:59;;;;;;;6.57;1.23;;;;;;;15.64;42.09;102092.00;5055644;28;20029;-70
2022/04/10 09:53:28;;;;;;;5.72;1.38;;;;;;;15.31;40.27;102101.13;5055644;28;20028;-70
2022/04/10 09:56:03;;;;;;;5.25;1.33;;;;;;;14.40;43.82;102100.66;5054096;28;20025;-69
2022/04/10 09:58:29;;;;;;;6.80;1.50;;;;;;;14.92;41.60;102111.13;5054899;28;20017;-69
2022/04/10 10:00:56;;;;;;;6.97;1.30;;;;;;;15.22;40.26;102104.84;5055207;28;20571;-69
2022/04/10 10:03:22;;;;;;;7.35;1.58;;;;;;;15.51;41.03;102096.09;5054609;28;20021;-68
2022/04/10 10:05:52;;;;;;;6.05;1.45;;;;;;;14.34;40.42;102100.56;5054773;28;20528;-69
2022/04/10 10:08:18;;;;;;;7.75;1.40;;;;;;;13.24;42.04;102101.81;5035043;28;20148;-70
2022/04/10 10:10:45;;;;;;;6.22;1.35;;;;;;;12.69;45.49;102099.34;5052573;28;20099;-69
2022/04/10 10:13:13;;;;;;;5.63;1.25;;;;;;;13.20;43.08;102104.91;5033932;28;20021;-70
2022/04/10 10:15:40;;;;;;;6.28;1.35;;;;;;;12.98;43.87;102104.72;5035379;28;20022;-69
2022/04/10 10:18:07;;;;;;;5.10;1.38;;;;;;;13.61;42.55;102102.06;5050466;28;20548;-69
2022/04/10 10:20:33;;;;;;;6.55;1.30;;;;;;;14.00;45.21;102100.09;5035153;28;20025;-69
2022/04/10 10:23:04;;;;;;;8.02;1.55;;;;;;;13.39;45.45;102104.50;5050896;28;20400;-69
2022/04/10 10:25:38;;;;;;;5.90;1.33;;;;;;;12.36;46.13;102107.22;5033703;28;20042;-69
2022/04/10 10:28:34;;;;;;;4.72;1.38;;;;;;;13.34;42.96;102099.00;5050425;28;20021;-69
2022/04/10 10:31:22;;;;;;;7.80;1.75;;;;;;;14.55;41.79;102087.66;5038001;28;20029;-74
2022/04/10 10:34:08;;;;;;;7.20;1.42;;;;;;;15.00;40.37;102096.19;5038565;28;20108;-75
2022/04/10 10:36:33;;;;;;;5.78;1.38;;;;;;;14.24;42.31;102100.81;5054069;28;20021;-75
2022/04/10 10:38:59;;;;;;;5.07;1.23;;;;;;;13.13;43.57;102080.66;5038462;28;20036;-74
2022/04/10 10:41:25;;;;;;;7.13;1.65;;;;;;;13.81;42.87;102090.22;5037825;28;20477;-75
2022/04/10 10:43:51;;;;;;;5.40;1.50;;;;;;;14.92;41.75;102105.91;5053470;28;20093;-77
2022/04/10 10:46:32;;;;;;;3.67;1.10;;;;;;;15.20;39.29;102093.00;5053499;28;20060;-75
2022/04/10 10:49:17;;;;;;;3.33;1.10;;;;;;;13.76;38.79;102098.53;5042560;28;20039;-75
2022/04/10 10:51:47;;;;;;;11.10;1.50;;;;;;;13.05;42.39;102105.66;5053654;28;20025;-75
2022/04/10 10:54:44;;;;;;;5.80;1.40;;;;;;;14.41;37.87;102101.47;5036880;28;20083;-74
2022/04/10 10:57:40;;;;;;;8.07;1.70;;;;;;;14.99;38.55;102102.41;5037354;28;20095;-74
2022/04/10 11:00:06;;;;;;;4.07;1.35;;;;;;;15.21;38.71;102102.41;5050374;28;20030;-75
2022/04/10 11:02:35;;;;;;;6.28;1.63;;;;;;;15.68;35.05;102093.25;5042354;28;20071;-74
2022/04/10 11:05:05;;;;;;;7.50;2.20;;;;;;;14.37;38.93;102095.81;5038931;28;20394;-74
2022/04/10 11:07:32;;;;;;;7.13;1.60;;;;;;;13.37;41.37;102090.06;5033947;28;20025;-74
2022/04/10 11:10:03;;;;;;;5.93;1.48;;;;;;;12.99;43.53;102098.53;5052724;28;20033;-73
2022/04/10 11:12:45;;;;;;;4.82;1.52;;;;;;;14.04;41.72;102095.38;5052942;28;20552;-73
2022/04/10 11:15:18;;;;;;;8.60;1.60;;;;;;;15.00;39.31;102104.00;5037648;28;20025;-75
2022/04/10 11:17:44;;;;;;;8.13;1.58;;;;;;;15.19;39.22;102100.03;5053768;28;20263;-75
2022/04/10 11:20:11;;;;;;;6.13;1.40;;;;;;;15.31;38.77;102085.50;5053751;28;20024;-74
2022/04/10 11:22:45;;;;;;;4.78;1.40;;;;;;;15.51;39.08;102096.09;5053591;28;20021;-75
2022/04/10 11:25:10;;;;;;;3.63;1.10;;;;;;;15.92;35.22;102092.03;5035127;28;20029;-75
2022/04/10 11:27:49;;;;;;;5.20;1.35;;;;;;;16.10;35.39;102084.50;5051630;28;20078;-73
2022/04/10 11:30:22;;;;;;;2.30;1.08;;;;;;;15.71;36.88;102083.25;5053523;28;20070;-74
2022/04/10 11:33:00;;;;;;;3.80;1.25;;;;;;;15.28;34.82;102085.88;5053246;28;20063;-75